createdAt,value
2023-01-07T00:01:22.723Z,2.03
2023-01-07T00:03:51.670Z,3.57
2023-01-07T00:06:22.551Z,3.40
2023-01-07T00:08:52.193Z,3.33
2023-01-07T00:11:26.394Z,3.00
2023-01-07T00:13:55.923Z,3.03
2023-01-07T00:16:26.190Z,2.87
2023-01-07T00:18:55.512Z,2.70
2023-01-07T00:21:24.591Z,2.50
2023-01-07T00:23:55.362Z,2.70
2023-01-07T00:26:26.470Z,2.90
2023-01-07T00:28:55.071Z,3.00
2023-01-07T00:31:25.467Z,4.27
2023-01-07T00:34:06.949Z,3.50
2023-01-07T00:36:36.890Z,2.67
2023-01-07T00:39:07.187Z,2.67
2023-01-07T00:41:36.928Z,3.17
2023-01-07T00:44:05.964Z,5.77
2023-01-07T00:46:33.828Z,3.43
2023-01-07T00:49:02.611Z,3.57
2023-01-07T00:51:30.357Z,3.80
2023-01-07T00:53:58.535Z,3.33
2023-01-07T00:56:26.576Z,2.57
2023-01-07T00:58:55.752Z,3.13
2023-01-07T01:01:23.810Z,2.83
2023-01-07T01:03:51.576Z,3.50
2023-01-07T01:06:19.226Z,3.17
2023-01-07T01:08:48.575Z,2.37
2023-01-07T01:11:18.168Z,2.47
2023-01-07T01:13:47.627Z,2.67
2023-01-07T01:16:18.745Z,2.93
2023-01-07T01:18:48.099Z,2.00
2023-01-07T01:21:17.234Z,2.17
2023-01-07T01:23:45.488Z,2.10
2023-01-07T01:26:15.050Z,2.07
2023-01-07T01:28:43.315Z,3.43
2023-01-07T01:31:12.236Z,3.23
2023-01-07T01:33:49.282Z,2.67
2023-01-07T01:36:18.179Z,2.47
2023-01-07T01:38:46.463Z,2.13
2023-01-07T01:41:17.674Z,4.50
2023-01-07T01:43:47.493Z,2.73
2023-01-07T01:46:19.277Z,3.10
2023-01-07T01:48:54.437Z,2.77
2023-01-07T01:51:27.469Z,2.67
2023-01-07T01:53:57.428Z,2.47
2023-01-07T01:56:30.548Z,1.67
2023-01-07T01:59:02.269Z,2.70
2023-01-07T02:01:34.743Z,2.43
2023-01-07T02:04:11.968Z,3.10
2023-01-07T02:06:43.244Z,2.50
2023-01-07T02:09:13.299Z,2.17
2023-01-07T02:11:47.547Z,3.57
2023-01-07T02:14:40.176Z,3.27
2023-01-07T02:17:18.139Z,2.47
2023-01-07T02:20:24.477Z,2.63
2023-01-07T02:23:14.178Z,2.13
2023-01-07T02:26:12.501Z,3.23
2023-01-07T02:29:00.336Z,2.73
2023-01-07T02:31:51.688Z,2.53
2023-01-07T02:34:27.752Z,2.60
2023-01-07T02:37:02.187Z,3.43
2023-01-07T02:39:46.882Z,3.03
2023-01-07T02:42:24.529Z,3.50
2023-01-07T02:45:03.854Z,2.93
2023-01-07T02:47:37.539Z,3.70
2023-01-07T02:50:07.085Z,3.47
2023-01-07T02:52:36.996Z,2.80
2023-01-07T02:55:07.532Z,3.13
2023-01-07T02:58:08.942Z,2.40
2023-01-07T03:00:57.446Z,3.13
2023-01-07T03:03:45.220Z,3.23
2023-01-07T03:06:33.785Z,2.70
2023-01-07T03:09:11.112Z,2.10
2023-01-07T03:11:46.616Z,2.73
2023-01-07T03:14:20.278Z,2.40
2023-01-07T03:16:55.808Z,3.67
2023-01-07T03:19:30.334Z,3.47
2023-01-07T03:22:03.221Z,2.43
2023-01-07T03:24:33.571Z,3.07
2023-01-07T03:27:05.324Z,2.97
2023-01-07T03:29:35.667Z,3.00
2023-01-07T03:32:19.648Z,2.73
2023-01-07T03:34:49.806Z,2.43
2023-01-07T03:37:20.002Z,2.43
2023-01-07T03:39:49.246Z,2.77
2023-01-07T03:42:41.270Z,2.87
2023-01-07T03:45:15.949Z,2.20
2023-01-07T03:47:47.395Z,2.83
2023-01-07T03:50:18.319Z,2.20
2023-01-07T03:52:50.746Z,2.70
2023-01-07T03:55:21.136Z,2.13
2023-01-07T03:57:51.043Z,2.03
2023-01-07T04:00:19.553Z,2.10
2023-01-07T04:02:55.261Z,3.13
2023-01-07T04:05:29.823Z,1.83
2023-01-07T04:07:58.177Z,2.03
2023-01-07T04:10:30.528Z,2.13
2023-01-07T04:12:58.204Z,1.93
2023-01-07T04:15:26.230Z,2.20
2023-01-07T04:17:53.878Z,1.77
2023-01-07T04:20:23.501Z,3.73
2023-01-07T04:22:52.855Z,4.87
2023-01-07T04:25:20.944Z,5.27
2023-01-07T04:27:49.146Z,3.27
2023-01-07T04:30:16.929Z,2.87
2023-01-07T04:32:45.100Z,3.33
2023-01-07T04:35:13.359Z,2.77
2023-01-07T04:37:41.787Z,2.63
2023-01-07T04:40:11.732Z,2.60
2023-01-07T04:42:40.558Z,3.13
2023-01-07T04:45:10.559Z,2.77
2023-01-07T04:47:38.586Z,2.47
2023-01-07T04:50:08.149Z,2.90
2023-01-07T04:52:37.691Z,2.70
2023-01-07T04:55:06.954Z,1.80
2023-01-07T04:57:37.548Z,1.97
2023-01-07T05:00:07.068Z,1.50
2023-01-07T05:02:36.153Z,1.93
2023-01-07T05:05:04.119Z,1.80
2023-01-07T05:07:32.544Z,2.77
2023-01-07T05:10:00.518Z,1.90
2023-01-07T05:12:29.368Z,2.07
2023-01-07T05:14:58.545Z,2.07
2023-01-07T05:17:26.498Z,2.60
2023-01-07T05:19:54.219Z,2.33
2023-01-07T05:22:22.362Z,2.60
2023-01-07T05:24:50.081Z,3.57
2023-01-07T05:27:18.451Z,4.37
2023-01-07T05:29:46.249Z,3.67
2023-01-07T05:32:16.050Z,3.43
2023-01-07T05:34:44.437Z,2.77
2023-01-07T05:37:12.520Z,3.53
2023-01-07T05:39:42.181Z,4.80
2023-01-07T05:42:10.546Z,3.87
2023-01-07T05:44:38.267Z,6.47
2023-01-07T05:47:06.513Z,5.20
2023-01-07T05:49:35.527Z,5.70
2023-01-07T05:52:03.456Z,5.80
2023-01-07T05:54:31.112Z,5.30
2023-01-07T05:57:00.295Z,4.03
2023-01-07T05:59:28.118Z,2.60
2023-01-07T06:01:56.363Z,2.33
2023-01-07T06:04:24.030Z,2.40
2023-01-07T06:06:53.786Z,2.33
2023-01-07T06:09:22.328Z,2.40
2023-01-07T06:11:50.447Z,2.40
2023-01-07T06:14:18.155Z,2.40
2023-01-07T06:16:46.567Z,3.77
2023-01-07T06:19:14.636Z,2.83
2023-01-07T06:21:42.483Z,3.03
2023-01-07T06:24:12.153Z,2.13
2023-01-07T06:26:40.130Z,2.90
2023-01-07T06:29:08.411Z,2.90
2023-01-07T06:31:36.184Z,2.43
2023-01-07T06:34:04.442Z,2.80
2023-01-07T06:36:32.111Z,2.30
2023-01-07T06:39:00.196Z,3.93
2023-01-07T06:41:29.195Z,2.27
2023-01-07T06:43:57.206Z,1.77
2023-01-07T06:46:25.145Z,1.90
2023-01-07T06:48:52.981Z,2.47
2023-01-07T06:51:20.624Z,2.63
2023-01-07T06:53:48.841Z,2.07
2023-01-07T06:56:16.490Z,3.50
2023-01-07T06:58:45.975Z,2.10
2023-01-07T07:01:13.730Z,5.53
2023-01-07T07:03:42.576Z,3.23
2023-01-07T07:06:10.273Z,4.23
2023-01-07T07:08:38.279Z,1.63
2023-01-07T07:11:06.680Z,2.73
2023-01-07T07:13:34.707Z,2.50
2023-01-07T07:16:04.211Z,2.63
2023-01-07T07:18:32.771Z,2.63
2023-01-07T07:21:00.419Z,2.60
2023-01-07T07:23:28.115Z,5.03
2023-01-07T07:25:55.800Z,2.87
2023-01-07T07:28:24.099Z,2.87
2023-01-07T07:30:51.885Z,3.33
2023-01-07T07:33:22.281Z,4.00
2023-01-07T07:35:50.292Z,5.40
2023-01-07T07:38:19.259Z,4.93
2023-01-07T07:40:47.089Z,3.70
2023-01-07T07:43:15.709Z,4.30
2023-01-07T07:45:43.448Z,5.00
2023-01-07T07:48:14.121Z,4.93
2023-01-07T07:50:43.501Z,5.53
2023-01-07T07:53:11.699Z,6.20
2023-01-07T07:55:40.305Z,3.20
2023-01-07T07:58:08.954Z,4.43
2023-01-07T08:00:36.899Z,3.30
2023-01-07T08:03:05.108Z,3.70
2023-01-07T08:05:33.581Z,3.83
2023-01-07T08:08:03.320Z,3.20
2023-01-07T08:10:31.661Z,3.77
2023-01-07T08:12:59.931Z,3.17
2023-01-07T08:15:27.859Z,4.07
2023-01-07T08:18:00.184Z,3.33
2023-01-07T08:20:28.645Z,7.00
2023-01-07T08:22:59.067Z,3.33
2023-01-07T08:25:28.829Z,2.80
2023-01-07T08:27:56.619Z,3.90
2023-01-07T08:30:25.314Z,3.10
2023-01-07T08:32:53.206Z,3.07
2023-01-07T08:35:22.411Z,3.87
2023-01-07T08:37:50.145Z,3.40
2023-01-07T08:40:19.074Z,3.23
2023-01-07T08:42:48.129Z,2.80
2023-01-07T08:45:16.631Z,3.47
2023-01-07T08:47:48.412Z,3.33
2023-01-07T08:50:16.856Z,3.77
2023-01-07T08:52:46.545Z,2.97
2023-01-07T08:55:15.534Z,2.60
2023-01-07T08:57:43.185Z,2.80
2023-01-07T09:00:15.897Z,2.67
2023-01-07T09:02:44.274Z,1.67
2023-01-07T09:05:12.751Z,1.20
2023-01-07T09:07:40.479Z,1.70
2023-01-07T09:10:11.175Z,2.50
2023-01-07T09:12:39.250Z,2.40
2023-01-07T09:15:08.409Z,1.77
2023-01-07T09:17:37.429Z,2.23
2023-01-07T09:20:07.385Z,1.30
2023-01-07T09:22:37.582Z,1.17
2023-01-07T09:25:06.590Z,1.40
2023-01-07T09:27:34.603Z,1.50
2023-01-07T09:30:02.457Z,0.80
2023-01-07T09:32:30.289Z,1.27
2023-01-07T09:34:59.331Z,1.27
2023-01-07T09:37:27.031Z,1.03
2023-01-07T09:39:54.697Z,1.50
2023-01-07T09:42:33.812Z,1.70
2023-01-07T09:45:10.296Z,2.30
2023-01-07T09:47:41.023Z,1.53
2023-01-07T09:50:17.613Z,1.90
2023-01-07T09:52:48.560Z,0.87
2023-01-07T09:55:21.432Z,1.87
2023-01-07T09:57:49.432Z,1.23
2023-01-07T10:00:20.239Z,1.00
2023-01-07T10:03:05.464Z,1.13
2023-01-07T10:05:40.429Z,1.77
2023-01-07T10:08:31.119Z,1.20
2023-01-07T10:11:07.086Z,1.00
2023-01-07T10:13:58.296Z,1.57
2023-01-07T10:16:37.683Z,1.53
2023-01-07T10:19:12.612Z,1.20
2023-01-07T10:21:48.997Z,1.27
2023-01-07T10:24:21.942Z,0.90
2023-01-07T10:26:52.413Z,1.87
2023-01-07T10:29:27.601Z,0.90
2023-01-07T10:31:59.771Z,0.87
2023-01-07T10:34:35.564Z,1.03
2023-01-07T10:37:09.520Z,0.70
2023-01-07T10:39:48.546Z,1.10
2023-01-07T10:42:23.251Z,1.10
2023-01-07T10:45:07.641Z,0.70
2023-01-07T10:47:51.855Z,1.20
2023-01-07T10:50:30.516Z,0.87
2023-01-07T10:53:08.730Z,0.90
2023-01-07T10:55:49.969Z,1.43
2023-01-07T10:58:18.425Z,1.13
2023-01-07T11:00:48.043Z,1.90
2023-01-07T11:03:22.207Z,1.50
2023-01-07T11:05:55.244Z,1.40
2023-01-07T11:08:30.405Z,1.00
2023-01-07T11:10:59.293Z,1.13
2023-01-07T11:13:31.751Z,1.77
2023-01-07T11:16:07.719Z,3.40
2023-01-07T11:18:42.353Z,2.30
2023-01-07T11:21:42.756Z,1.63
2023-01-07T11:24:00.613Z,2.10
2023-01-07T11:26:31.224Z,2.57
2023-01-07T11:29:02.348Z,1.03
2023-01-07T11:31:50.015Z,2.30
2023-01-07T11:34:23.322Z,1.30
2023-01-07T11:36:52.453Z,1.70
2023-01-07T11:39:23.538Z,1.27
2023-01-07T11:41:57.554Z,0.90
2023-01-07T11:44:25.877Z,1.30
2023-01-07T11:46:55.591Z,1.23
2023-01-07T11:49:26.867Z,1.13
2023-01-07T11:51:55.251Z,1.33
2023-01-07T11:54:27.205Z,0.73
2023-01-07T11:57:12.523Z,1.13
2023-01-07T11:59:40.339Z,1.00
2023-01-07T12:02:24.904Z,2.77
2023-01-07T12:04:52.819Z,1.33
2023-01-07T12:07:21.715Z,0.77
2023-01-07T12:09:50.816Z,1.03
2023-01-07T12:12:36.849Z,0.77
2023-01-07T12:15:16.521Z,2.83
2023-01-07T12:17:47.534Z,1.47
2023-01-07T12:20:42.157Z,0.83
2023-01-07T12:23:27.563Z,0.93
2023-01-07T12:26:05.840Z,1.10
2023-01-07T12:28:49.683Z,1.23
2023-01-07T12:31:29.655Z,1.63
2023-01-07T12:34:13.916Z,1.33
2023-01-07T12:36:48.796Z,1.03
2023-01-07T12:39:22.693Z,7.67
2023-01-07T12:41:58.070Z,1.73
2023-01-07T12:44:26.604Z,1.00
2023-01-07T12:47:30.479Z,0.83
2023-01-07T12:49:58.264Z,0.77
2023-01-07T12:52:41.354Z,0.90
2023-01-07T12:55:17.683Z,0.57
2023-01-07T12:57:56.383Z,1.50
2023-01-07T13:00:27.673Z,1.27
2023-01-07T13:03:05.075Z,0.87
2023-01-07T13:05:39.227Z,0.77
2023-01-07T13:08:16.055Z,0.40
2023-01-07T13:10:49.509Z,1.57
2023-01-07T13:13:25.487Z,0.80
2023-01-07T13:15:53.807Z,0.70
2023-01-07T13:18:22.445Z,0.83
2023-01-07T13:21:04.115Z,0.53
2023-01-07T13:23:51.691Z,0.80
2023-01-07T13:26:32.044Z,1.43
2023-01-07T13:29:16.574Z,0.80
2023-01-07T13:32:04.813Z,0.70
2023-01-07T13:34:43.210Z,0.90
2023-01-07T13:37:23.390Z,2.03
2023-01-07T13:40:07.615Z,1.40
2023-01-07T13:42:44.958Z,1.40
2023-01-07T13:45:18.137Z,1.20
2023-01-07T13:47:49.278Z,0.60
2023-01-07T13:50:25.121Z,1.20
2023-01-07T13:53:01.201Z,1.17
2023-01-07T13:55:38.809Z,0.77
2023-01-07T13:58:45.143Z,0.90
2023-01-07T14:01:15.532Z,1.87
2023-01-07T14:03:50.633Z,1.83
2023-01-07T14:06:43.413Z,1.50
2023-01-07T14:09:25.751Z,1.83
2023-01-07T14:12:12.158Z,2.17
2023-01-07T14:14:48.079Z,2.97
2023-01-07T14:17:28.221Z,1.93
2023-01-07T14:20:05.956Z,1.70
2023-01-07T14:22:46.423Z,1.77
2023-01-07T14:25:28.485Z,2.43
2023-01-07T14:28:17.859Z,1.77
2023-01-07T14:30:47.767Z,1.77
2023-01-07T14:33:22.008Z,2.50
2023-01-07T14:35:57.309Z,2.03
2023-01-07T14:39:01.784Z,2.73
2023-01-07T14:41:29.807Z,2.20
2023-01-07T14:44:06.545Z,4.30
2023-01-07T14:46:51.647Z,1.63
2023-01-07T14:49:43.204Z,5.23
2023-01-07T14:52:21.216Z,4.07
2023-01-07T14:55:10.208Z,1.63
2023-01-07T14:57:46.609Z,1.83
2023-01-07T15:00:38.361Z,1.97
2023-01-07T15:03:37.262Z,1.83
2023-01-07T15:06:23.570Z,0.93
2023-01-07T15:09:12.748Z,1.00
2023-01-07T15:12:00.777Z,2.23
2023-01-07T15:14:53.488Z,1.47
2023-01-07T15:17:21.756Z,2.17
2023-01-07T15:19:50.708Z,1.57
2023-01-07T15:22:33.355Z,2.87
2023-01-07T15:25:08.865Z,1.70
2023-01-07T15:27:44.575Z,1.70
2023-01-07T15:30:27.196Z,1.83
2023-01-07T15:33:01.994Z,1.53
2023-01-07T15:35:34.841Z,1.73
2023-01-07T15:38:21.527Z,1.87
2023-01-07T15:40:49.611Z,2.97
2023-01-07T15:43:23.555Z,1.50
2023-01-07T15:45:59.902Z,2.20
2023-01-07T15:48:27.589Z,2.73
2023-01-07T15:50:56.162Z,1.87
2023-01-07T15:53:27.048Z,2.00
2023-01-07T15:55:59.385Z,2.33
2023-01-07T15:58:35.257Z,2.27
2023-01-07T16:01:04.570Z,4.27
2023-01-07T16:03:33.936Z,4.47
2023-01-07T16:06:01.848Z,7.20
2023-01-07T16:08:33.218Z,5.20
2023-01-07T16:11:04.457Z,6.47
2023-01-07T16:13:33.351Z,5.77
2023-01-07T16:16:03.593Z,4.93
2023-01-07T16:18:33.366Z,5.03
2023-01-07T16:21:05.436Z,5.80
2023-01-07T16:23:36.681Z,7.00
2023-01-07T16:26:07.796Z,6.83
2023-01-07T16:28:40.833Z,7.27
2023-01-07T16:31:13.023Z,5.33
2023-01-07T16:33:43.080Z,5.73
2023-01-07T16:36:17.317Z,6.83
2023-01-07T16:38:49.292Z,6.23
2023-01-07T16:41:21.975Z,6.20
2023-01-07T16:43:52.403Z,10.60
2023-01-07T16:46:26.066Z,9.43
2023-01-07T16:49:21.380Z,9.93
2023-01-07T16:51:52.519Z,10.77
2023-01-07T16:54:37.303Z,10.23
2023-01-07T16:57:08.305Z,13.33
2023-01-07T16:59:39.109Z,13.97
2023-01-07T17:02:28.587Z,10.63
2023-01-07T17:04:57.773Z,11.27
2023-01-07T17:07:27.840Z,9.00
2023-01-07T17:10:00.307Z,3.70
2023-01-07T17:12:29.817Z,4.40
2023-01-07T17:14:57.583Z,5.70
2023-01-07T17:17:31.515Z,4.13
2023-01-07T17:20:17.336Z,4.20
2023-01-07T17:22:45.607Z,3.60
2023-01-07T17:25:16.357Z,3.37
2023-01-07T17:27:48.100Z,4.73
2023-01-07T17:30:18.057Z,51.47
2023-01-07T17:32:48.271Z,49.13
2023-01-07T17:35:20.507Z,21.87
2023-01-07T17:37:48.513Z,16.27
2023-01-07T17:40:18.429Z,10.53
2023-01-07T17:43:05.528Z,7.07
2023-01-07T17:45:33.643Z,6.07
2023-01-07T17:48:01.747Z,10.07
2023-01-07T17:50:37.001Z,9.30
2023-01-07T17:53:05.908Z,8.97
2023-01-07T17:55:36.697Z,10.50
2023-01-07T17:58:04.703Z,12.40
2023-01-07T18:00:33.194Z,7.07
2023-01-07T18:03:01.234Z,7.53
2023-01-07T18:05:28.957Z,7.03
2023-01-07T18:07:57.023Z,5.37
2023-01-07T18:10:49.550Z,5.23
2023-01-07T18:13:17.972Z,5.53
2023-01-07T18:15:46.383Z,24.30
2023-01-07T18:18:15.046Z,7.07
2023-01-07T18:20:42.724Z,8.07
2023-01-07T18:23:12.392Z,8.73
2023-01-07T18:25:40.194Z,8.77
2023-01-07T18:28:08.193Z,10.17
2023-01-07T18:30:38.932Z,9.63
2023-01-07T18:33:08.635Z,11.40
2023-01-07T18:35:36.305Z,11.83
2023-01-07T18:38:04.725Z,12.93
2023-01-07T18:40:32.856Z,11.10
2023-01-07T18:43:01.286Z,13.23
2023-01-07T18:45:28.963Z,12.50
2023-01-07T18:47:58.661Z,13.73
2023-01-07T18:50:26.338Z,13.73
2023-01-07T18:52:54.333Z,12.07
2023-01-07T18:55:22.211Z,9.60
2023-01-07T18:57:50.195Z,11.93
2023-01-07T19:00:18.419Z,10.17
2023-01-07T19:02:46.219Z,8.77
2023-01-07T19:05:15.501Z,13.37
2023-01-07T19:07:43.801Z,8.97
2023-01-07T19:10:11.662Z,8.83
2023-01-07T19:12:39.821Z,9.37
2023-01-07T19:15:08.694Z,7.03
2023-01-07T19:17:36.390Z,7.10
2023-01-07T19:20:04.226Z,7.03
2023-01-07T19:22:33.215Z,9.97
2023-01-07T19:25:01.187Z,11.67
2023-01-07T19:27:28.979Z,13.47
2023-01-07T19:29:56.745Z,11.80
2023-01-07T19:32:24.732Z,11.73
2023-01-07T19:34:53.174Z,11.20
2023-01-07T19:37:21.911Z,11.77
2023-01-07T19:39:51.635Z,14.70
2023-01-07T19:42:19.310Z,11.23
2023-01-07T19:44:47.299Z,8.83
2023-01-07T19:47:16.510Z,8.77
2023-01-07T19:49:45.274Z,9.80
2023-01-07T19:52:13.511Z,9.77
2023-01-07T19:54:41.812Z,7.07
2023-01-07T19:57:11.091Z,9.17
2023-01-07T19:59:39.037Z,9.80
2023-01-07T20:02:06.996Z,7.53
2023-01-07T20:04:34.829Z,8.57
2023-01-07T20:07:02.487Z,5.87
2023-01-07T20:09:30.188Z,7.07
2023-01-07T20:11:57.900Z,7.90
2023-01-07T20:14:27.714Z,9.57
2023-01-07T20:16:55.467Z,10.07
2023-01-07T20:19:24.605Z,9.53
2023-01-07T20:21:53.097Z,10.83
2023-01-07T20:24:20.812Z,13.53
2023-01-07T20:26:48.571Z,11.17
2023-01-07T20:29:16.276Z,13.33
2023-01-07T20:31:45.787Z,13.03
2023-01-07T20:34:13.695Z,12.50
2023-01-07T20:36:41.367Z,11.87
2023-01-07T20:39:09.530Z,11.53
2023-01-07T20:41:38.612Z,12.37
2023-01-07T20:44:08.756Z,13.77
2023-01-07T20:46:38.906Z,11.90
2023-01-07T20:49:08.426Z,11.67
2023-01-07T20:51:36.079Z,12.13
2023-01-07T20:54:04.214Z,10.40
2023-01-07T20:56:32.881Z,9.87
2023-01-07T20:59:01.719Z,8.80
2023-01-07T21:01:30.555Z,9.77
2023-01-07T21:03:58.494Z,7.53
2023-01-07T21:06:27.539Z,9.87
2023-01-07T21:08:55.202Z,8.67
2023-01-07T21:11:24.500Z,8.77
2023-01-07T21:13:52.501Z,9.03
2023-01-07T21:16:20.313Z,8.80
2023-01-07T21:18:48.191Z,9.43
2023-01-07T21:21:19.129Z,10.67
2023-01-07T21:23:49.387Z,6.93
2023-01-07T21:26:17.838Z,7.27
2023-01-07T21:28:45.950Z,8.00
2023-01-07T21:31:16.427Z,8.47
2023-01-07T21:33:44.761Z,10.93
2023-01-07T21:36:15.188Z,7.47
2023-01-07T21:38:42.922Z,8.80
2023-01-07T21:41:14.049Z,10.20
2023-01-07T21:43:42.076Z,7.90
2023-01-07T21:46:10.040Z,10.13
2023-01-07T21:48:39.925Z,8.03
2023-01-07T21:51:10.624Z,8.57
2023-01-07T21:53:38.499Z,8.43
2023-01-07T21:56:07.572Z,8.00
2023-01-07T21:58:37.438Z,7.13
2023-01-07T22:01:06.331Z,9.10
2023-01-07T22:03:34.560Z,7.43
2023-01-07T22:06:04.271Z,9.93
2023-01-07T22:08:32.487Z,8.40
2023-01-07T22:11:00.302Z,8.13
2023-01-07T22:13:28.107Z,8.90
2023-01-07T22:15:57.228Z,8.27
2023-01-07T22:18:24.933Z,7.83
2023-01-07T22:20:55.043Z,9.20
2023-01-07T22:23:23.393Z,8.00
2023-01-07T22:25:52.215Z,7.17
2023-01-07T22:28:24.003Z,6.83
2023-01-07T22:30:54.203Z,6.57
2023-01-07T22:33:23.541Z,6.23
2023-01-07T22:35:51.658Z,6.30
2023-01-07T22:38:21.770Z,6.77
2023-01-07T22:40:49.599Z,6.60
2023-01-07T22:43:20.475Z,5.77
2023-01-07T22:45:54.278Z,6.97
2023-01-07T22:48:27.504Z,6.07
2023-01-07T22:50:58.888Z,6.20
2023-01-07T22:53:27.452Z,7.40
2023-01-07T22:55:55.250Z,5.93
2023-01-07T22:58:22.910Z,6.50
2023-01-07T23:01:14.571Z,6.97
2023-01-07T23:03:45.129Z,6.13
2023-01-07T23:06:16.079Z,6.97
2023-01-07T23:08:44.418Z,4.63
2023-01-07T23:11:32.984Z,6.13
2023-01-07T23:14:00.647Z,6.27
2023-01-07T23:16:28.641Z,5.70
2023-01-07T23:18:58.008Z,6.00
2023-01-07T23:21:25.705Z,6.53
2023-01-07T23:23:53.583Z,5.73
2023-01-07T23:26:21.267Z,5.17
2023-01-07T23:28:48.991Z,6.37
2023-01-07T23:31:16.721Z,6.53
2023-01-07T23:33:45.084Z,6.43
2023-01-07T23:36:14.314Z,5.03
2023-01-07T23:38:41.976Z,5.83
2023-01-07T23:41:11.740Z,5.70
2023-01-07T23:43:39.843Z,5.13
2023-01-07T23:46:09.087Z,5.40
2023-01-07T23:48:38.485Z,8.20
2023-01-07T23:51:08.135Z,4.77
2023-01-07T23:53:37.468Z,5.43
2023-01-07T23:56:06.280Z,4.53
2023-01-07T23:58:34.929Z,4.33
